Airfield :
LOGIN :

Register | Disclaimer

   EN    FR    IT 

 










Legend :    VFR   Marginal VFR   IFR   Intensive IFR   Very Intensive IFR
Visi :
Ceiling :
>= 8 km
>= 3000ft
5 to 8 km
1000 to 3000 ft
1500m to 5 km
500 to 1000 ft
800 to 1500m
200 to 500 ft
< 800m
< 200 ft
Symbols :   Thunderstorms  Fog  Heavy snow  Heavy precipitations  Wind > 20 kt
SIGMETs :     Misc.  Thunderstorms  Icing  Turbulence  Mountain Waves  Volcanic Ashes







- Airport Elevation : 19 ft
- IATA code : LCY
- Download approach charts


EGLC - London City

CURRENT METAR :
  • 121320Z AUTO 24006KT 9999 NCD 04/M00 Q1010

EXPIRED METARs :
  • 121250Z AUTO 24007KT 9999 NCD 04/M00 Q1010
  • 121220Z AUTO 24006KT 210V270 9999 NCD 04/M00 Q1009
  • 121150Z AUTO 24006KT 180V280 9999 NCD 03/M01 Q1009
  • 121120Z AUTO 25008KT 200V280 9999 NCD 02/M01 Q1010
  • 121050Z AUTO 24006KT 210V310 9999 NCD 01/M02 Q1010

TAF TAF EGLC
Valid from the 12 at 12:00 until the 12 at 21:00 UTC


121102Z 1212/1221 23007KT 9999 FEW020
PROB30 1216/1221 6000
ATIS : +44 20 7646 0224
No reported NOTAMs for that airfield.
1 SIGMET reported for the London FIR (EGTT) :
 
Severe turbulence
EGTT SIGMET 02 VALID 121100/121500 EGRR
EGTT LONDON FIR SEV TURB FCST WI N5100 W00754 - N5207 W00548 - N4929 W00441 - N4926 W00456 - N4856 W00729 - N5100 W00754 FL200/420 MOV E 05KT NC=



MET'MAP, your aeronautical weather chart ! - Copyright ORBIFLY December 2007 - Disclaimer

ORBIFLY MET'MAP TEAM :

Programming & Development : Alexandra Zaïnal
Concept & Development : Baudouin d'Aumeries
Co-Development & Prog : Marc-Olivier Méhu
Technical & hardware support : Manuel Goepfert

Contact : metmap@orbifly.com




SOURCES & CREDITS :

   NOAA